createdAt,value
2023-01-08T00:01:05.818Z,-147.80
2023-01-08T00:03:33.668Z,-147.80
2023-01-08T00:06:03.024Z,-147.80
2023-01-08T00:08:30.932Z,-147.80
2023-01-08T00:10:59.005Z,-147.80
2023-01-08T00:13:27.070Z,-147.80
2023-01-08T00:15:56.452Z,-147.80
2023-01-08T00:18:24.762Z,-147.80
2023-01-08T00:20:52.634Z,11.53
2023-01-08T00:23:21.434Z,11.53
2023-01-08T00:25:49.196Z,-147.80
2023-01-08T00:28:16.994Z,-147.80
2023-01-08T00:30:44.991Z,-147.80
2023-01-08T00:33:14.517Z,-147.80
2023-01-08T00:35:42.555Z,-147.80
2023-01-08T00:38:10.344Z,-147.80
2023-01-08T00:40:40.298Z,-147.80
2023-01-08T00:43:08.432Z,-147.80
2023-01-08T00:45:36.521Z,-147.80
2023-01-08T00:48:04.288Z,-147.80
2023-01-08T00:50:33.402Z,-147.80
2023-01-08T00:53:01.226Z,-147.80
2023-01-08T00:55:29.033Z,-147.80
2023-01-08T00:57:58.092Z,-147.80
2023-01-08T01:00:26.003Z,-147.80
2023-01-08T01:02:53.793Z,-147.80
2023-01-08T01:05:21.583Z,-147.80
2023-01-08T01:07:50.787Z,-147.80
2023-01-08T01:10:18.839Z,-147.80
2023-01-08T01:12:46.611Z,-147.80
2023-01-08T01:15:17.045Z,-147.80
2023-01-08T01:17:46.353Z,11.41
2023-01-08T01:20:15.963Z,-147.80
2023-01-08T01:22:44.217Z,-147.80
2023-01-08T01:25:13.332Z,-147.80
2023-01-08T01:27:41.123Z,-147.80
2023-01-08T01:30:10.625Z,-147.80
2023-01-08T01:32:38.397Z,-147.80
2023-01-08T01:35:07.205Z,-147.80
2023-01-08T01:37:35.083Z,-147.80
2023-01-08T01:40:03.002Z,-147.80
2023-01-08T01:42:41.317Z,-147.80
2023-01-08T01:45:19.123Z,-147.80
2023-01-08T01:47:50.647Z,-147.80
2023-01-08T01:50:23.914Z,-147.80
2023-01-08T01:52:57.041Z,-147.80
2023-01-08T01:55:27.222Z,-147.80
2023-01-08T01:58:04.541Z,-147.80
2023-01-08T02:00:33.647Z,-147.80
2023-01-08T02:03:02.059Z,-147.80
2023-01-08T02:05:42.025Z,-147.80
2023-01-08T02:08:13.721Z,-147.80
2023-01-08T02:10:49.464Z,-147.80
2023-01-08T02:13:24.039Z,-147.80
2023-01-08T02:15:58.117Z,-147.80
2023-01-08T02:18:31.063Z,-147.80
2023-01-08T02:21:03.664Z,11.68
2023-01-08T02:23:38.547Z,-147.80
2023-01-08T02:26:13.526Z,-147.80
2023-01-08T02:28:45.959Z,-147.80
2023-01-08T02:31:14.372Z,-147.80
2023-01-08T02:33:42.276Z,-147.80
2023-01-08T02:36:31.256Z,-147.80
2023-01-08T02:39:09.843Z,-147.80
2023-01-08T02:41:52.997Z,-147.80
2023-01-08T02:44:25.482Z,-147.80
2023-01-08T02:46:55.392Z,-147.80
2023-01-08T02:49:29.719Z,-147.80
2023-01-08T02:52:01.296Z,-147.80
2023-01-08T02:54:32.460Z,-147.80
2023-01-08T02:57:06.845Z,-147.80
2023-01-08T02:59:35.722Z,-147.80
2023-01-08T03:02:04.399Z,-147.80
2023-01-08T03:04:38.439Z,-147.80
2023-01-08T03:07:06.199Z,-147.80
2023-01-08T03:09:34.085Z,-147.80
2023-01-08T03:12:07.119Z,-147.80
2023-01-08T03:14:40.247Z,-147.80
2023-01-08T03:17:14.083Z,-147.80
2023-01-08T03:19:45.545Z,-147.80
2023-01-08T03:22:16.824Z,-147.80
2023-01-08T03:24:48.250Z,-147.80
2023-01-08T03:27:19.963Z,-147.80
2023-01-08T03:29:50.228Z,11.68
2023-01-08T03:32:19.911Z,-147.80
2023-01-08T03:34:49.733Z,-147.80
2023-01-08T03:37:22.228Z,-147.80
2023-01-08T03:39:58.329Z,-147.80
2023-01-08T03:42:29.883Z,-147.80
2023-01-08T03:44:57.606Z,-147.80
2023-01-08T03:47:28.127Z,-147.80
2023-01-08T03:49:58.009Z,-147.80
2023-01-08T03:52:28.036Z,-147.80
2023-01-08T03:54:55.835Z,-147.80
2023-01-08T03:57:24.047Z,-147.80
2023-01-08T03:59:53.176Z,-147.80
2023-01-08T04:02:21.194Z,-147.80
2023-01-08T04:04:49.613Z,-147.80
2023-01-08T04:07:17.461Z,-147.80
2023-01-08T04:09:45.201Z,-147.80
2023-01-08T04:12:12.925Z,-147.80
2023-01-08T04:14:40.914Z,-147.80
2023-01-08T04:17:12.330Z,-147.80
2023-01-08T04:19:40.060Z,-147.80
2023-01-08T04:22:07.950Z,-147.80
2023-01-08T04:24:35.725Z,-147.80
2023-01-08T04:27:03.608Z,-147.80
2023-01-08T04:29:31.427Z,-147.80
2023-01-08T04:31:59.203Z,-147.80
2023-01-08T04:34:28.340Z,-147.80
2023-01-08T04:36:56.109Z,-147.80
2023-01-08T04:39:23.955Z,-147.80
2023-01-08T04:41:51.720Z,-147.80
2023-01-08T04:44:19.467Z,-147.80
2023-01-08T04:46:47.229Z,-147.80
2023-01-08T04:49:15.443Z,-147.80
2023-01-08T04:51:44.696Z,-147.80
2023-01-08T04:54:12.484Z,-147.80
2023-01-08T04:56:40.214Z,-147.80
2023-01-08T04:59:08.058Z,-147.80
2023-01-08T05:01:35.933Z,-147.80
2023-01-08T05:04:05.661Z,-147.80
2023-01-08T05:06:34.040Z,-147.80
2023-01-08T05:09:03.516Z,-147.80
2023-01-08T05:11:31.351Z,-147.80
2023-01-08T05:13:59.125Z,-147.80
2023-01-08T05:16:26.877Z,-147.80
2023-01-08T05:18:54.605Z,-147.80
2023-01-08T05:21:22.386Z,-147.80
2023-01-08T05:23:50.148Z,-147.80
2023-01-08T05:26:19.797Z,-147.80
2023-01-08T05:28:47.605Z,-147.80
2023-01-08T05:31:15.728Z,-147.80
2023-01-08T05:33:43.714Z,-147.80
2023-01-08T05:36:13.708Z,-147.80
2023-01-08T05:38:42.055Z,-147.80
2023-01-08T05:41:10.729Z,-147.80
2023-01-08T05:43:39.864Z,-147.80
2023-01-08T05:46:07.803Z,-147.80
2023-01-08T05:48:37.133Z,-147.80
2023-01-08T05:51:05.511Z,-147.80
2023-01-08T05:53:33.859Z,-147.80
2023-01-08T05:56:03.105Z,-147.80
2023-01-08T05:58:31.039Z,-147.80
2023-01-08T06:01:05.983Z,-147.80
2023-01-08T06:03:35.646Z,-147.80
2023-01-08T06:06:05.216Z,-147.80
2023-01-08T06:08:33.685Z,-147.80
2023-01-08T06:11:01.769Z,-147.80
2023-01-08T06:13:29.838Z,-147.80
2023-01-08T06:16:00.122Z,-147.80
2023-01-08T06:18:31.337Z,-147.80
2023-01-08T06:20:59.076Z,-147.80
2023-01-08T06:23:26.863Z,-147.80
2023-01-08T06:25:54.903Z,-147.80
2023-01-08T06:28:22.888Z,-147.80
2023-01-08T06:30:51.032Z,-147.80
2023-01-08T06:33:21.088Z,-147.80
2023-01-08T06:35:50.520Z,-147.80
2023-01-08T06:38:19.245Z,-147.80
2023-01-08T06:40:47.237Z,-147.80
2023-01-08T06:43:15.265Z,-147.80
2023-01-08T06:45:43.063Z,-147.80
2023-01-08T06:48:10.785Z,-147.80
2023-01-08T06:50:38.543Z,-147.80
2023-01-08T06:53:07.626Z,-147.80
2023-01-08T06:55:35.542Z,-147.80
2023-01-08T06:58:03.269Z,-147.80
2023-01-08T07:00:31.169Z,-147.80
2023-01-08T07:02:58.946Z,-147.80
2023-01-08T07:05:27.056Z,-147.80
2023-01-08T07:07:55.239Z,-147.80
2023-01-08T07:10:24.422Z,-147.80
2023-01-08T07:12:52.178Z,-147.80
2023-01-08T07:15:19.938Z,-147.80
2023-01-08T07:17:47.847Z,-147.80
2023-01-08T07:20:15.857Z,-147.80
2023-01-08T07:22:43.811Z,-147.80
2023-01-08T07:25:11.996Z,-147.80
2023-01-08T07:27:41.153Z,-147.80
2023-01-08T07:30:18.093Z,-147.80
2023-01-08T07:32:54.436Z,-147.80
2023-01-08T07:35:22.238Z,-147.80
2023-01-08T07:37:50.016Z,-147.80
2023-01-08T07:40:17.787Z,-147.80
2023-01-08T07:42:46.957Z,-147.80
2023-01-08T07:45:14.750Z,-147.80
2023-01-08T07:47:42.512Z,-147.80
2023-01-08T07:50:10.818Z,-147.80
2023-01-08T07:52:38.557Z,-147.80
2023-01-08T07:55:06.716Z,-147.80
2023-01-08T07:57:34.483Z,-147.80
2023-01-08T08:00:05.433Z,-147.80
2023-01-08T08:02:34.658Z,-147.80
2023-01-08T08:05:02.944Z,-147.80
2023-01-08T08:07:31.965Z,-147.80
2023-01-08T08:09:59.991Z,-147.80
2023-01-08T08:12:27.896Z,-147.80
2023-01-08T08:14:55.742Z,-147.80
2023-01-08T08:17:26.811Z,-147.80
2023-01-08T08:19:54.684Z,-147.80
2023-01-08T08:22:22.575Z,-147.80
2023-01-08T08:24:50.462Z,-147.80
2023-01-08T08:27:18.266Z,-147.80
2023-01-08T08:29:46.048Z,-147.80
2023-01-08T08:32:13.969Z,-147.80
2023-01-08T08:34:43.159Z,-147.80
2023-01-08T08:37:11.027Z,-147.80
2023-01-08T08:39:38.959Z,-147.80
2023-01-08T08:42:06.760Z,-147.80
2023-01-08T08:44:34.646Z,-147.80
2023-01-08T08:47:02.463Z,-147.80
2023-01-08T08:49:30.204Z,-147.80
2023-01-08T08:51:59.584Z,-147.80
2023-01-08T08:54:27.302Z,-147.80
2023-01-08T08:56:55.082Z,-147.80
2023-01-08T08:59:22.836Z,-147.80
2023-01-08T09:01:50.694Z,-147.80
2023-01-08T09:04:18.468Z,-147.80
2023-01-08T09:06:46.230Z,-147.80
2023-01-08T09:09:15.952Z,-147.80
2023-01-08T09:11:43.800Z,-147.80
2023-01-08T09:14:11.796Z,-147.80
2023-01-08T09:16:39.554Z,-147.80
2023-01-08T09:19:07.483Z,-147.80
2023-01-08T09:21:35.340Z,-147.80
2023-01-08T09:24:03.091Z,-147.80
2023-01-08T09:26:32.258Z,-147.80
2023-01-08T09:29:00.636Z,-147.80
2023-01-08T09:31:28.924Z,-147.80
2023-01-08T09:33:56.677Z,-147.80
2023-01-08T09:36:24.447Z,-147.80
2023-01-08T09:38:52.190Z,-147.80
2023-01-08T09:41:23.773Z,-147.80
2023-01-08T09:43:55.401Z,-147.80
2023-01-08T09:46:27.298Z,-147.80
2023-01-08T09:48:58.609Z,-147.80
2023-01-08T09:51:34.265Z,-147.80
2023-01-08T09:54:02.919Z,-147.80
2023-01-08T09:56:31.136Z,-147.80
2023-01-08T09:59:03.016Z,-147.80
2023-01-08T10:01:32.435Z,-147.80
2023-01-08T10:04:06.318Z,-147.80
2023-01-08T10:06:34.649Z,-147.80
2023-01-08T10:09:02.924Z,-147.80
2023-01-08T10:11:41.943Z,-147.80
2023-01-08T10:14:21.970Z,-147.80
2023-01-08T10:16:54.062Z,-147.80
2023-01-08T10:19:22.757Z,-147.80
2023-01-08T10:21:51.585Z,-147.80
2023-01-08T10:24:31.332Z,-147.80
2023-01-08T10:27:08.512Z,-147.80
2023-01-08T10:29:39.849Z,-147.80
2023-01-08T10:32:12.010Z,-147.80
2023-01-08T10:34:46.993Z,-147.80
2023-01-08T10:37:27.861Z,-147.80
2023-01-08T10:40:01.856Z,-147.80
2023-01-08T10:42:35.051Z,-147.80
2023-01-08T10:45:08.843Z,-147.80
2023-01-08T10:47:38.447Z,-147.80
2023-01-08T10:50:19.716Z,11.68
2023-01-08T10:52:54.526Z,-147.80
2023-01-08T10:55:27.953Z,-147.80
2023-01-08T10:58:00.602Z,-147.80
2023-01-08T11:00:32.033Z,-147.80
2023-01-08T11:03:02.538Z,-147.80
2023-01-08T11:05:35.291Z,-147.80
2023-01-08T11:08:06.367Z,-147.80
2023-01-08T11:10:36.047Z,-147.80
2023-01-08T11:13:07.115Z,-147.80
2023-01-08T11:15:39.786Z,-147.80
2023-01-08T11:18:21.320Z,-147.80
2023-01-08T11:20:50.101Z,13.87
2023-01-08T11:23:22.682Z,-147.80
2023-01-08T11:25:57.149Z,-147.80
2023-01-08T11:28:34.509Z,-147.80
2023-01-08T11:31:14.754Z,12.90
2023-01-08T11:33:45.994Z,-147.80
2023-01-08T11:36:23.560Z,-147.80
2023-01-08T11:38:51.518Z,-147.80
2023-01-08T11:41:45.793Z,-147.80
2023-01-08T11:44:28.922Z,-147.80
2023-01-08T11:47:06.811Z,-147.80
2023-01-08T11:49:51.045Z,-147.80
2023-01-08T11:52:32.134Z,-147.80
2023-01-08T11:55:14.788Z,-147.80
2023-01-08T11:57:57.816Z,-147.80
2023-01-08T12:00:51.815Z,-147.80
2023-01-08T12:03:31.654Z,-147.80
2023-01-08T12:06:10.703Z,13.54
2023-01-08T12:08:48.370Z,14.07
2023-01-08T12:11:24.944Z,-147.80
2023-01-08T12:14:19.567Z,-147.80
2023-01-08T12:17:08.198Z,-147.80
2023-01-08T12:19:51.808Z,-147.80
2023-01-08T12:22:31.343Z,-147.80
2023-01-08T12:25:27.356Z,-147.80
2023-01-08T12:28:09.285Z,-147.80
2023-01-08T12:30:47.965Z,-147.80
2023-01-08T12:33:23.919Z,-147.80
2023-01-08T12:35:58.585Z,-147.80
2023-01-08T12:38:31.917Z,-147.80
2023-01-08T12:41:02.761Z,-147.80
2023-01-08T12:43:36.600Z,-147.80
2023-01-08T12:46:06.236Z,-147.80
2023-01-08T12:48:36.757Z,-147.80
2023-01-08T12:51:18.275Z,13.92
2023-01-08T12:53:56.965Z,14.15
2023-01-08T12:56:36.597Z,14.22
2023-01-08T12:59:16.858Z,-147.80
2023-01-08T13:01:50.540Z,-147.80
2023-01-08T13:04:19.560Z,-147.80
2023-01-08T13:06:53.854Z,-147.80
2023-01-08T13:09:25.490Z,-147.80
2023-01-08T13:11:54.951Z,-147.80
2023-01-08T13:14:24.117Z,-147.80
2023-01-08T13:17:04.062Z,-147.80
2023-01-08T13:19:41.602Z,-147.80
2023-01-08T13:22:24.889Z,-147.80
2023-01-08T13:24:53.251Z,-147.80
2023-01-08T13:27:30.486Z,-147.80
2023-01-08T13:30:02.005Z,-147.80
2023-01-08T13:32:45.656Z,-147.80
2023-01-08T13:35:26.015Z,-147.80
2023-01-08T13:38:14.359Z,-147.80
2023-01-08T13:40:56.330Z,-147.80
2023-01-08T13:43:28.186Z,-147.80
2023-01-08T13:46:15.979Z,-147.80
2023-01-08T13:48:51.381Z,-147.80
2023-01-08T13:51:34.319Z,-147.80
2023-01-08T13:54:16.716Z,-147.80
2023-01-08T13:56:47.151Z,-147.80
2023-01-08T13:59:24.784Z,-147.80
2023-01-08T14:01:53.951Z,-147.80
2023-01-08T14:04:22.882Z,-147.80
2023-01-08T14:06:51.047Z,-147.80
2023-01-08T14:09:23.776Z,-147.80
2023-01-08T14:11:55.756Z,-147.80
2023-01-08T14:14:25.581Z,-147.80
2023-01-08T14:16:54.682Z,-147.80
2023-01-08T14:19:24.319Z,-147.80
2023-01-08T14:21:54.317Z,-147.80
2023-01-08T14:24:25.956Z,-147.80
2023-01-08T14:26:54.919Z,-147.80
2023-01-08T14:29:24.770Z,-147.80
2023-01-08T14:31:55.537Z,-147.80
2023-01-08T14:34:24.637Z,-147.80
2023-01-08T14:36:54.421Z,-147.80
2023-01-08T14:39:26.083Z,-147.80
2023-01-08T14:42:13.514Z,-147.80
2023-01-08T14:44:46.930Z,-147.80
2023-01-08T14:47:20.224Z,-147.80
2023-01-08T14:49:52.217Z,14.22
2023-01-08T14:52:21.208Z,-147.80
2023-01-08T14:54:53.971Z,-147.80
2023-01-08T14:57:24.166Z,-147.80
2023-01-08T14:59:56.198Z,-147.80
2023-01-08T15:02:30.548Z,-147.80
2023-01-08T15:05:16.251Z,-147.80
2023-01-08T15:07:45.436Z,-147.80
2023-01-08T15:10:42.411Z,-147.80
2023-01-08T15:13:24.024Z,-147.80
2023-01-08T15:15:57.952Z,-147.80
2023-01-08T15:18:26.221Z,-147.80
2023-01-08T15:20:55.296Z,-147.80
2023-01-08T15:23:29.997Z,-147.80
2023-01-08T15:25:59.300Z,-147.80
2023-01-08T15:28:27.445Z,-147.80
2023-01-08T15:30:58.164Z,-147.80
2023-01-08T15:33:26.595Z,-147.80
2023-01-08T15:35:54.663Z,-147.80
2023-01-08T15:38:23.818Z,-147.80
2023-01-08T15:40:54.089Z,-147.80
2023-01-08T15:43:22.602Z,-147.80
2023-01-08T15:45:51.517Z,-147.80
2023-01-08T15:48:19.448Z,-147.80
2023-01-08T15:50:47.569Z,-147.80
2023-01-08T15:53:22.234Z,-147.80
2023-01-08T15:55:50.512Z,11.12
2023-01-08T15:58:18.497Z,11.02
2023-01-08T16:00:47.851Z,10.97
2023-01-08T16:03:17.248Z,10.90
2023-01-08T16:05:45.257Z,10.81
2023-01-08T16:08:13.175Z,-146.46
2023-01-08T16:10:41.008Z,-147.80
2023-01-08T16:13:11.758Z,-147.80
2023-01-08T16:15:40.528Z,-147.80
2023-01-08T16:18:10.156Z,-147.80
2023-01-08T16:20:39.210Z,-147.80
2023-01-08T16:23:07.305Z,-147.80
2023-01-08T16:25:35.130Z,-147.80
2023-01-08T16:28:03.192Z,-147.80
2023-01-08T16:30:31.062Z,-147.80
2023-01-08T16:32:58.854Z,-147.80
2023-01-08T16:35:28.080Z,-147.80
2023-01-08T16:37:56.491Z,-147.80
2023-01-08T16:40:24.328Z,-147.80
2023-01-08T16:42:52.211Z,-147.80
2023-01-08T16:45:19.991Z,-147.80
2023-01-08T16:47:47.933Z,-147.80
2023-01-08T16:50:16.329Z,-147.80
2023-01-08T16:52:45.588Z,-147.80
2023-01-08T16:55:13.456Z,-147.80
2023-01-08T16:57:43.778Z,-147.80
2023-01-08T17:00:13.149Z,-147.80
2023-01-08T17:02:41.016Z,-147.80
2023-01-08T17:05:09.379Z,11.82
2023-01-08T17:07:37.273Z,-147.80
2023-01-08T17:10:07.815Z,-147.80
2023-01-08T17:12:37.351Z,-147.80
2023-01-08T17:15:08.530Z,-147.80
2023-01-08T17:17:36.523Z,-147.80
2023-01-08T17:20:05.019Z,-147.80
2023-01-08T17:22:32.801Z,-147.80
2023-01-08T17:25:00.753Z,-147.80
2023-01-08T17:27:29.953Z,-147.80
2023-01-08T17:29:58.344Z,-147.80
2023-01-08T17:32:26.805Z,-147.80
2023-01-08T17:34:54.837Z,-147.80
2023-01-08T17:37:22.835Z,-147.80
2023-01-08T17:39:50.870Z,-147.80
2023-01-08T17:42:28.382Z,-147.80
2023-01-08T17:45:01.316Z,-147.80
2023-01-08T17:47:29.370Z,-147.80
2023-01-08T17:49:58.588Z,-147.80
2023-01-08T17:52:27.249Z,-147.80
2023-01-08T17:54:55.072Z,-147.80
2023-01-08T17:57:22.927Z,42.52
2023-01-08T17:59:50.711Z,45.03
2023-01-08T18:02:20.024Z,46.32
2023-01-08T18:04:48.375Z,45.47
2023-01-08T18:07:16.392Z,47.05
2023-01-08T18:09:44.772Z,48.69
2023-01-08T18:12:12.809Z,47.79
2023-01-08T18:14:41.467Z,47.10
2023-01-08T18:17:09.236Z,44.83
2023-01-08T18:19:38.340Z,44.77
2023-01-08T18:22:06.169Z,42.03
2023-01-08T18:24:34.510Z,43.34
2023-01-08T18:27:02.344Z,42.72
2023-01-08T18:29:30.464Z,42.63
2023-01-08T18:31:58.559Z,41.53
2023-01-08T18:34:26.545Z,41.02
2023-01-08T18:36:55.713Z,42.94
2023-01-08T18:39:23.530Z,43.73
2023-01-08T18:42:09.031Z,41.94
2023-01-08T18:44:36.760Z,42.55
2023-01-08T18:47:04.564Z,43.57
2023-01-08T18:49:32.443Z,45.39
2023-01-08T18:52:02.000Z,46.23
2023-01-08T18:54:29.896Z,45.22
2023-01-08T18:56:57.883Z,44.46
2023-01-08T18:59:25.785Z,43.93
2023-01-08T19:01:53.679Z,43.80
2023-01-08T19:04:21.659Z,44.90
2023-01-08T19:06:49.871Z,44.32
2023-01-08T19:09:19.312Z,44.34
2023-01-08T19:11:47.263Z,42.07
2023-01-08T19:14:15.370Z,41.64
2023-01-08T19:16:48.267Z,40.03
2023-01-08T19:19:16.315Z,40.65
2023-01-08T19:21:44.165Z,40.48
2023-01-08T19:24:11.932Z,41.75
2023-01-08T19:26:41.135Z,39.94
2023-01-08T19:29:09.097Z,40.00
2023-01-08T19:31:37.110Z,39.87
2023-01-08T19:34:05.888Z,40.43
2023-01-08T19:36:34.407Z,39.26
2023-01-08T19:39:03.811Z,40.43
2023-01-08T19:41:49.798Z,41.93
2023-01-08T19:44:19.021Z,40.61
2023-01-08T19:46:46.862Z,41.47
2023-01-08T19:49:14.642Z,39.57
2023-01-08T19:51:42.495Z,40.03
2023-01-08T19:54:13.393Z,41.55
2023-01-08T19:56:41.121Z,41.32
2023-01-08T19:59:08.915Z,42.55
2023-01-08T20:01:39.011Z,43.36
2023-01-08T20:04:06.943Z,44.73
2023-01-08T20:06:34.945Z,42.46
2023-01-08T20:09:03.356Z,37.73
2023-01-08T20:11:31.314Z,41.11
2023-01-08T20:14:00.472Z,43.97
2023-01-08T20:16:29.586Z,41.34
2023-01-08T20:19:02.013Z,42.64
2023-01-08T20:21:30.159Z,39.16
2023-01-08T20:23:59.642Z,42.48
2023-01-08T20:26:28.967Z,40.20
2023-01-08T20:28:58.799Z,41.07
2023-01-08T20:31:29.575Z,43.27
2023-01-08T20:34:00.083Z,40.05
2023-01-08T20:36:30.279Z,39.90
2023-01-08T20:38:59.616Z,42.74
2023-01-08T20:41:28.013Z,41.60
2023-01-08T20:43:57.103Z,39.07
2023-01-08T20:46:28.417Z,37.79
2023-01-08T20:48:59.645Z,37.85
2023-01-08T20:51:27.697Z,36.64
2023-01-08T20:53:55.565Z,38.57
2023-01-08T20:56:23.531Z,39.87
2023-01-08T20:58:51.469Z,41.74
2023-01-08T21:01:21.771Z,41.28
2023-01-08T21:03:51.849Z,43.17
2023-01-08T21:06:24.303Z,44.08
2023-01-08T21:08:53.816Z,42.37
2023-01-08T21:11:22.314Z,42.51
2023-01-08T21:13:50.886Z,40.80
2023-01-08T21:16:22.790Z,40.49
2023-01-08T21:18:51.336Z,39.95
2023-01-08T21:21:22.944Z,39.22
2023-01-08T21:23:52.024Z,40.01
2023-01-08T21:26:20.409Z,42.59
2023-01-08T21:28:49.743Z,-147.80
2023-01-08T21:31:19.728Z,40.52
2023-01-08T21:33:48.989Z,38.21
2023-01-08T21:36:18.406Z,37.41
2023-01-08T21:38:48.253Z,37.31
2023-01-08T21:41:32.678Z,37.17
2023-01-08T21:44:17.741Z,37.14
2023-01-08T21:46:45.593Z,38.26
2023-01-08T21:49:13.818Z,38.19
2023-01-08T21:51:59.922Z,37.29
2023-01-08T21:54:29.052Z,37.02
2023-01-08T21:56:56.867Z,39.05
2023-01-08T21:59:24.695Z,38.34
2023-01-08T22:01:52.586Z,40.62
2023-01-08T22:04:20.478Z,39.43
2023-01-08T22:06:48.242Z,36.99
2023-01-08T22:09:16.020Z,39.95
2023-01-08T22:11:45.138Z,39.81
2023-01-08T22:14:12.869Z,39.22
2023-01-08T22:16:40.701Z,40.15
2023-01-08T22:19:08.509Z,39.60
2023-01-08T22:21:36.501Z,38.51
2023-01-08T22:24:04.375Z,38.77
2023-01-08T22:26:33.005Z,37.57
2023-01-08T22:29:02.159Z,37.81
2023-01-08T22:31:30.019Z,38.70
2023-01-08T22:33:58.022Z,39.51
2023-01-08T22:36:26.657Z,38.80
2023-01-08T22:38:54.363Z,40.29
2023-01-08T22:41:25.096Z,40.40
2023-01-08T22:43:56.854Z,42.44
2023-01-08T22:46:26.592Z,41.68
2023-01-08T22:48:54.617Z,43.17
2023-01-08T22:51:25.766Z,41.73
2023-01-08T22:53:55.170Z,40.81
2023-01-08T22:56:22.936Z,42.94
2023-01-08T22:58:51.005Z,42.42
2023-01-08T23:01:20.717Z,40.50
2023-01-08T23:03:51.414Z,37.96
2023-01-08T23:06:20.327Z,40.63
2023-01-08T23:08:48.665Z,42.45
2023-01-08T23:11:19.288Z,40.28
2023-01-08T23:13:47.633Z,41.88
2023-01-08T23:16:17.545Z,41.12
2023-01-08T23:18:45.834Z,40.95
2023-01-08T23:21:17.331Z,40.46
2023-01-08T23:23:45.686Z,42.49
2023-01-08T23:26:16.070Z,42.04
2023-01-08T23:28:44.111Z,42.37
2023-01-08T23:31:14.492Z,42.90
2023-01-08T23:33:42.465Z,43.08
2023-01-08T23:36:12.333Z,40.68
2023-01-08T23:38:41.420Z,39.18
2023-01-08T23:41:09.188Z,39.65
2023-01-08T23:43:36.849Z,40.72
2023-01-08T23:46:06.021Z,41.13
2023-01-08T23:48:34.715Z,40.84
2023-01-08T23:51:03.043Z,39.87
2023-01-08T23:53:33.205Z,39.58
2023-01-08T23:56:02.328Z,41.69
2023-01-08T23:58:30.119Z,40.52
